Time;durP1;ratioP1;P1;durP2;ratioP2;P2;SDS_P1;SDS_P2;PMS_P1;PMS_P2;Temp;Humidity;BMP_temperature;BMP_pressure;BME280_temperature;BME280_humidity;BME280_pressure;Samples;Min_cycle;Max_cycle;Signal;HPM_P1;HPM_P2
2021/05/05 00:00:21;;;;;;;1.03;1.03;;;;;;;6.40;100.00;95660.88;5030778;28;20225;-63
2021/05/05 00:02:46;;;;;;;1.07;1.07;;;;;;;6.38;100.00;95657.69;5031372;28;20177;-63
2021/05/05 00:05:13;;;;;;;1.10;1.10;;;;;;;6.42;100.00;95650.19;5030464;28;20194;-64
2021/05/05 00:07:39;;;;;;;1.50;1.50;;;;;;;6.33;100.00;95649.78;5031771;28;20190;-64
2021/05/05 00:10:06;;;;;;;1.07;1.07;;;;;;;6.30;100.00;95634.59;5030804;28;20187;-64
2021/05/05 00:12:32;;;;;;;1.20;1.20;;;;;;;6.28;100.00;95631.44;5031741;28;20189;-63
2021/05/05 00:14:57;;;;;;;1.20;1.10;;;;;;;6.36;100.00;95619.88;5031029;28;20265;-64
2021/05/05 00:17:22;;;;;;;1.50;1.17;;;;;;;6.24;100.00;95615.47;5031006;28;20614;-64
2021/05/05 00:19:48;;;;;;;1.10;1.10;;;;;;;6.32;100.00;95618.75;5031133;28;20248;-63
2021/05/05 00:22:13;;;;;;;1.10;1.10;;;;;;;6.29;100.00;95629.66;5030320;28;20179;-63
2021/05/05 00:24:39;;;;;;;1.00;1.00;;;;;;;6.28;100.00;95628.06;5031456;28;20182;-63
2021/05/05 00:27:05;;;;;;;1.10;1.10;;;;;;;6.32;100.00;95636.97;5030135;28;20198;-64
2021/05/05 00:29:30;;;;;;;1.17;1.10;;;;;;;6.34;100.00;95648.75;5031649;28;20288;-63
2021/05/05 00:31:56;;;;;;;1.30;1.30;;;;;;;6.35;100.00;95636.53;5030709;28;20195;-63
2021/05/05 00:34:21;;;;;;;1.30;1.20;;;;;;;6.27;100.00;95640.28;5030444;28;20269;-63
2021/05/05 00:36:46;;;;;;;1.40;1.00;;;;;;;6.37;100.00;95647.50;5030558;28;20183;-64
2021/05/05 00:39:12;;;;;;;1.10;1.10;;;;;;;6.45;100.00;95639.34;5030357;28;20194;-63
2021/05/05 00:41:37;;;;;;;1.00;1.00;;;;;;;6.39;100.00;95635.06;5030979;28;20592;-64
2021/05/05 00:44:03;;;;;;;2.43;1.10;;;;;;;6.42;100.00;95630.19;5030690;28;20258;-64
2021/05/05 00:46:29;;;;;;;1.20;1.20;;;;;;;6.45;100.00;95624.53;5031161;28;20210;-63
2021/05/05 00:48:55;;;;;;;1.10;1.10;;;;;;;6.38;100.00;95621.25;5030543;28;20613;-64
2021/05/05 00:51:20;;;;;;;1.27;1.10;;;;;;;6.31;100.00;95611.97;5031222;28;20178;-64
2021/05/05 00:53:46;;;;;;;1.17;1.10;;;;;;;6.23;100.00;95616.53;5035070;28;20663;-64
2021/05/05 00:56:11;;;;;;;1.33;1.27;;;;;;;6.37;100.00;95616.28;5034303;28;20186;-64
2021/05/05 00:58:37;;;;;;;1.40;1.40;;;;;;;6.36;100.00;95604.28;5034633;28;20222;-64
2021/05/05 01:01:03;;;;;;;1.50;1.40;;;;;;;6.40;100.00;95614.03;5033513;28;20222;-63
2021/05/05 01:03:29;;;;;;;1.43;1.43;;;;;;;6.44;100.00;95611.75;5034727;28;20218;-64
2021/05/05 01:05:54;;;;;;;1.20;1.20;;;;;;;6.41;100.00;95594.75;5034310;28;20705;-63
2021/05/05 01:08:21;;;;;;;2.10;1.30;;;;;;;6.33;100.00;95578.72;5034190;28;20191;-64
2021/05/05 01:10:47;;;;;;;1.23;1.23;;;;;;;6.32;100.00;95590.94;5034668;28;20187;-63
2021/05/05 01:13:14;;;;;;;1.50;1.40;;;;;;;6.37;100.00;95582.44;5033310;28;20632;-63
2021/05/05 01:15:40;;;;;;;1.50;1.30;;;;;;;6.42;100.00;95566.94;5034647;28;20186;-63
2021/05/05 01:18:05;;;;;;;1.50;1.00;;;;;;;6.37;100.00;95564.22;5033826;28;20523;-63
2021/05/05 01:20:31;;;;;;;1.10;1.10;;;;;;;6.33;100.00;95561.31;5034899;28;20217;-63
2021/05/05 01:22:56;;;;;;;0.83;0.83;;;;;;;6.39;100.00;95568.19;5035164;28;20175;-63
2021/05/05 01:25:22;;;;;;;1.23;1.23;;;;;;;6.38;100.00;95568.41;5033171;28;20210;-63
2021/05/05 01:27:48;;;;;;;3.40;1.20;;;;;;;6.42;100.00;95575.53;5034843;28;20241;-63
2021/05/05 01:30:16;;;;;;;1.37;1.37;;;;;;;6.39;100.00;95572.59;5033641;28;20195;-63
2021/05/05 01:32:43;;;;;;;0.90;0.90;;;;;;;6.44;100.00;95581.31;5034557;28;20644;-63
2021/05/05 01:35:11;;;;;;;1.10;1.00;;;;;;;6.36;100.00;95573.03;5033125;28;20186;-63
2021/05/05 01:37:36;;;;;;;1.07;1.00;;;;;;;6.45;100.00;95569.88;5034317;28;20207;-63
2021/05/05 01:40:04;;;;;;;2.10;1.00;;;;;;;6.44;100.00;95583.13;5033452;28;20174;-64
2021/05/05 01:42:30;;;;;;;0.80;0.80;;;;;;;6.38;100.00;95576.22;5034184;28;20655;-63
2021/05/05 01:44:57;;;;;;;1.70;0.80;;;;;;;6.43;100.00;95584.91;5034318;28;20210;-64
2021/05/05 01:47:23;;;;;;;1.00;1.00;;;;;;;6.51;100.00;95581.97;5033076;28;20270;-64
2021/05/05 01:49:48;;;;;;;1.17;0.90;;;;;;;6.40;100.00;95579.41;5034282;28;20178;-63
2021/05/05 01:52:15;;;;;;;1.60;1.07;;;;;;;6.54;100.00;95576.28;5015777;28;20544;-63
2021/05/05 01:54:41;;;;;;;1.13;1.13;;;;;;;6.48;100.00;95577.22;5033900;28;20244;-64
2021/05/05 01:57:28;;;;;;;1.97;1.10;;;;;;;6.43;100.00;95569.31;5033262;28;20183;-64
2021/05/05 01:59:54;;;;;;;0.97;0.93;;;;;;;6.43;100.00;95565.91;5033110;28;20218;-63
2021/05/05 02:02:19;;;;;;;1.13;1.03;;;;;;;6.61;100.00;95569.16;5032629;28;20199;-63
2021/05/05 02:04:45;;;;;;;1.03;1.00;;;;;;;6.50;100.00;95564.78;5034230;28;20218;-63
2021/05/05 02:07:10;;;;;;;1.10;1.10;;;;;;;6.44;100.00;95577.91;5032800;28;20190;-64
2021/05/05 02:09:35;;;;;;;1.20;1.20;;;;;;;6.52;100.00;95580.94;5033894;28;20186;-63
2021/05/05 02:12:01;;;;;;;1.07;1.07;;;;;;;6.45;100.00;95569.88;5033693;28;20630;-63
2021/05/05 02:14:27;;;;;;;1.10;1.10;;;;;;;6.37;100.00;95569.44;5033385;28;20189;-63
2021/05/05 02:16:57;;;;;;;1.00;1.00;;;;;;;6.39;100.00;95564.78;5015760;28;20197;-63
2021/05/05 02:19:23;;;;;;;0.90;0.90;;;;;;;6.36;100.00;95562.63;5032863;28;20174;-63
2021/05/05 02:21:48;;;;;;;1.83;1.10;;;;;;;6.35;100.00;95561.09;5015399;28;20225;-63
2021/05/05 02:24:13;;;;;;;1.10;1.07;;;;;;;6.43;100.00;95560.72;5032596;28;20277;-63
2021/05/05 02:26:40;;;;;;;0.80;0.80;;;;;;;6.29;100.00;95557.59;5033554;28;20193;-63
2021/05/05 02:29:05;;;;;;;0.87;0.87;;;;;;;6.32;100.00;95557.13;5032077;28;20197;-63
2021/05/05 02:31:31;;;;;;;1.20;1.20;;;;;;;6.26;100.00;95556.22;5026388;28;20198;-63
2021/05/05 02:33:56;;;;;;;2.57;1.10;;;;;;;6.34;100.00;95554.28;5033571;28;20182;-63
2021/05/05 02:36:21;;;;;;;0.90;0.90;;;;;;;6.37;100.00;95566.81;5032092;28;20190;-63
2021/05/05 02:38:47;;;;;;;0.87;0.87;;;;;;;6.48;100.00;95566.00;5032867;28;20183;-63
2021/05/05 02:41:12;;;;;;;1.20;1.10;;;;;;;6.34;100.00;95565.50;5032414;28;20217;-63
2021/05/05 02:43:38;;;;;;;1.83;1.00;;;;;;;6.37;100.00;95567.63;5031975;28;20658;-63
2021/05/05 02:46:03;;;;;;;1.30;1.20;;;;;;;6.35;100.00;95579.28;5031860;28;20234;-64
2021/05/05 02:48:28;;;;;;;1.00;1.00;;;;;;;6.44;100.00;95578.69;5032157;28;20182;-62
2021/05/05 02:50:54;;;;;;;0.93;0.93;;;;;;;6.35;100.00;95582.69;5033346;28;20543;-63
2021/05/05 02:53:19;;;;;;;1.10;1.00;;;;;;;6.33;100.00;95589.91;5031930;28;20193;-63
2021/05/05 02:55:45;;;;;;;0.97;0.97;;;;;;;6.33;100.00;95589.13;5032794;28;20226;-62
2021/05/05 02:58:11;;;;;;;0.90;0.90;;;;;;;6.32;100.00;95600.56;5014137;28;20644;-62
2021/05/05 03:00:36;;;;;;;1.27;1.27;;;;;;;6.29;100.00;95585.41;5032267;28;20805;-62
2021/05/05 03:03:01;;;;;;;0.97;0.93;;;;;;;6.23;100.00;95587.13;5032402;28;20191;-62
2021/05/05 03:05:27;;;;;;;1.00;1.00;;;;;;;6.14;100.00;95584.06;5031994;28;20656;-64
2021/05/05 03:07:52;;;;;;;1.40;1.30;;;;;;;6.22;100.00;95591.53;5032758;28;20546;-63
2021/05/05 03:10:18;;;;;;;0.90;0.90;;;;;;;6.33;100.00;95583.94;5032163;28;20534;-63
2021/05/05 03:12:43;;;;;;;1.30;1.20;;;;;;;6.26;100.00;95584.03;5032552;28;20178;-63
2021/05/05 03:15:10;;;;;;;0.70;0.70;;;;;;;6.30;100.00;95574.75;5031341;28;20201;-63
2021/05/05 03:17:37;;;;;;;0.90;0.90;;;;;;;6.37;100.00;95582.44;5032516;28;20194;-63
2021/05/05 03:20:08;;;;;;;0.70;0.70;;;;;;;6.37;100.00;95578.03;5031964;28;20277;-63
2021/05/05 03:22:34;;;;;;;1.70;0.77;;;;;;;6.45;100.00;95576.91;5032490;28;20266;-63
2021/05/05 03:24:59;;;;;;;0.87;0.87;;;;;;;6.39;100.00;95572.59;5031822;28;20333;-63
2021/05/05 03:27:24;;;;;;;1.37;1.13;;;;;;;6.24;100.00;95571.25;5031579;28;20194;-63
2021/05/05 03:29:50;;;;;;;1.37;1.03;;;;;;;6.31;100.00;95571.13;5014462;28;20182;-64
2021/05/05 03:32:15;;;;;;;1.07;0.97;;;;;;;6.32;100.00;95577.13;5031341;28;20643;-63
2021/05/05 03:34:41;;;;;;;1.00;1.00;;;;;;;6.28;100.00;95576.03;5031155;28;20182;-63
2021/05/05 03:37:06;;;;;;;0.97;0.97;;;;;;;6.39;100.00;95581.19;5031213;28;20253;-63
2021/05/05 03:39:31;;;;;;;0.93;0.90;;;;;;;6.39;100.00;95580.41;5030955;28;20694;-63
2021/05/05 03:41:57;;;;;;;1.00;1.00;;;;;;;6.34;100.00;95582.91;5032031;28;20672;-63
2021/05/05 03:44:22;;;;;;;0.73;0.73;;;;;;;6.32;100.00;95590.16;5031107;28;20773;-64
2021/05/05 03:46:48;;;;;;;0.80;0.80;;;;;;;6.29;100.00;95586.22;5032116;28;20727;-64
2021/05/05 03:49:13;;;;;;;3.80;1.00;;;;;;;6.33;100.00;95581.31;5030626;28;20186;-63
2021/05/05 03:51:38;;;;;;;0.70;0.70;;;;;;;6.29;100.00;95582.81;5031586;28;20338;-63
2021/05/05 03:54:04;;;;;;;1.60;0.83;;;;;;;6.38;100.00;95586.63;5031091;28;20208;-64
2021/05/05 03:56:30;;;;;;;0.90;0.90;;;;;;;6.40;100.00;95588.00;5032234;28;20202;-64
2021/05/05 03:58:56;;;;;;;0.90;0.90;;;;;;;6.41;100.00;95583.59;5031617;28;20190;-64
2021/05/05 04:01:21;;;;;;;1.37;1.10;;;;;;;6.41;100.00;95583.59;5030342;28;20252;-63
2021/05/05 04:03:47;;;;;;;1.10;1.10;;;;;;;6.42;100.00;95587.75;5031842;28;20197;-64
2021/05/05 04:06:12;;;;;;;1.73;1.13;;;;;;;6.44;100.00;95591.72;5030866;28;20234;-64
2021/05/05 04:08:38;;;;;;;1.33;0.90;;;;;;;6.38;100.00;95597.03;5031840;28;20300;-65
2021/05/05 04:11:04;;;;;;;1.00;0.90;;;;;;;6.36;100.00;95586.06;5030739;28;20205;-64
2021/05/05 04:13:32;;;;;;;1.60;0.93;;;;;;;6.32;100.00;95588.34;5031372;28;20183;-65
2021/05/05 04:15:59;;;;;;;0.90;0.90;;;;;;;6.19;100.00;95591.97;5015782;28;20183;-64
2021/05/05 04:18:24;;;;;;;0.80;0.80;;;;;;;6.25;100.00;95596.25;5030867;28;20179;-64
2021/05/05 04:20:49;;;;;;;0.93;0.93;;;;;;;6.20;100.00;95598.75;5031033;28;20179;-64
2021/05/05 04:23:15;;;;;;;1.10;1.10;;;;;;;6.29;100.00;95607.03;5031096;28;20175;-64
2021/05/05 04:25:40;;;;;;;1.10;1.10;;;;;;;6.09;100.00;95609.16;5030058;28;20221;-64
2021/05/05 04:28:08;;;;;;;1.10;1.10;;;;;;;5.93;100.00;95609.84;5030309;28;20258;-64
2021/05/05 04:30:35;;;;;;;1.20;1.20;;;;;;;5.95;100.00;95616.44;5030609;28;20205;-64
2021/05/05 04:33:00;;;;;;;1.17;1.00;;;;;;;5.89;100.00;95626.94;5031599;28;20263;-64
2021/05/05 04:35:26;;;;;;;0.90;0.90;;;;;;;5.89;100.00;95626.94;5030578;28;20186;-64
2021/05/05 04:37:51;;;;;;;1.00;1.00;;;;;;;6.00;100.00;95620.94;5030776;28;20175;-64
2021/05/05 04:40:17;;;;;;;0.97;0.97;;;;;;;5.99;100.00;95629.75;5030608;28;20179;-64
2021/05/05 04:42:42;;;;;;;0.87;0.87;;;;;;;5.99;100.00;95640.94;5031472;28;20643;-64
2021/05/05 04:45:09;;;;;;;0.90;0.90;;;;;;;5.99;100.00;95651.34;5030038;28;20214;-65
2021/05/05 04:47:36;;;;;;;0.97;0.97;;;;;;;6.00;100.00;95652.94;5031002;28;20187;-64
2021/05/05 04:50:04;;;;;;;0.90;0.83;;;;;;;5.95;100.00;95654.63;5030590;28;20711;-63
2021/05/05 04:52:29;;;;;;;1.20;1.00;;;;;;;5.90;100.00;95652.72;5031129;28;20683;-63
2021/05/05 04:54:55;;;;;;;0.83;0.83;;;;;;;5.92;100.00;95662.88;5031574;28;20262;-63
2021/05/05 04:57:20;;;;;;;0.90;0.90;;;;;;;5.76;100.00;95656.50;5030107;28;20194;-63
2021/05/05 04:59:46;;;;;;;1.00;1.00;;;;;;;5.89;100.00;95656.31;5030780;28;20242;-63
2021/05/05 05:02:11;;;;;;;1.13;1.13;;;;;;;5.95;100.00;95658.03;5029657;28;20190;-63
2021/05/05 05:04:40;;;;;;;1.20;1.17;;;;;;;5.91;100.00;95659.47;5031082;28;20183;-63
2021/05/05 05:07:06;;;;;;;1.10;1.10;;;;;;;5.94;100.00;95669.44;5029141;28;20202;-63
2021/05/05 05:09:32;;;;;;;2.33;1.13;;;;;;;6.06;100.00;95672.84;5031159;28;20221;-63
2021/05/05 05:11:59;;;;;;;1.10;1.10;;;;;;;6.11;100.00;95679.97;5030477;28;20214;-63
2021/05/05 05:14:24;;;;;;;1.70;1.60;;;;;;;6.23;100.00;95684.16;5029989;28;20781;-64
2021/05/05 05:16:49;;;;;;;1.03;1.03;;;;;;;6.03;100.00;95681.09;5030665;28;20187;-63
2021/05/05 05:19:15;;;;;;;1.10;1.10;;;;;;;6.06;100.00;95679.88;5030364;28;20663;-63
2021/05/05 05:21:40;;;;;;;1.50;0.90;;;;;;;6.11;100.00;95685.19;5031057;28;20178;-63
2021/05/05 05:24:06;;;;;;;0.90;0.90;;;;;;;6.31;100.00;95701.25;5030005;28;20590;-63
2021/05/05 05:26:32;;;;;;;1.00;1.00;;;;;;;6.25;100.00;95691.72;5013166;28;20281;-62
2021/05/05 05:28:57;;;;;;;0.90;0.90;;;;;;;6.16;100.00;95688.69;5030407;28;20269;-63
2021/05/05 05:31:22;;;;;;;0.80;0.80;;;;;;;6.22;100.00;95685.19;5030062;28;20186;-64
2021/05/05 05:33:48;;;;;;;0.90;0.90;;;;;;;6.14;100.00;95682.91;5030900;28;20723;-63
2021/05/05 05:36:13;;;;;;;0.90;0.90;;;;;;;6.26;100.00;95681.09;5029750;28;20182;-63
2021/05/05 05:38:39;;;;;;;0.93;0.93;;;;;;;6.83;100.00;95690.91;5033164;28;20191;-62
2021/05/05 05:41:04;;;;;;;0.90;0.90;;;;;;;7.03;100.00;95689.47;5033728;28;20183;-63
2021/05/05 05:43:29;;;;;;;0.63;0.63;;;;;;;6.83;100.00;95694.28;5016205;28;20222;-63
2021/05/05 05:45:55;;;;;;;0.70;0.70;;;;;;;6.83;100.00;95698.72;5033467;28;20239;-63
2021/05/05 05:48:20;;;;;;;0.80;0.80;;;;;;;6.87;100.00;95711.03;5033170;28;20709;-63
2021/05/05 05:50:45;;;;;;;0.73;0.63;;;;;;;6.78;100.00;95709.81;5033661;28;20217;-63
2021/05/05 05:53:11;;;;;;;0.50;0.50;;;;;;;6.80;100.00;95715.56;5033311;28;20891;-63
2021/05/05 05:55:41;;;;;;;0.70;0.70;;;;;;;6.91;100.00;95712.16;5034267;28;20198;-63
2021/05/05 05:58:06;;;;;;;0.60;0.60;;;;;;;6.75;100.00;95718.06;5033509;28;20537;-63
2021/05/05 06:00:31;;;;;;;0.60;0.60;;;;;;;6.69;100.00;95719.78;5033529;28;20302;-63
2021/05/05 06:02:57;;;;;;;0.73;0.73;;;;;;;6.63;100.00;95718.09;5033161;28;20249;-63
2021/05/05 06:05:22;;;;;;;0.60;0.60;;;;;;;6.70;100.00;95717.97;5015344;28;20215;-63
2021/05/05 06:07:49;;;;;;;1.50;1.10;;;;;;;6.81;100.00;95718.97;5033733;28;20170;-62
2021/05/05 06:10:14;;;;;;;1.03;1.03;;;;;;;6.98;100.00;95725.84;5033161;28;20197;-63
2021/05/05 06:12:40;;;;;;;0.70;0.70;;;;;;;7.05;100.00;95725.72;5033458;28;20206;-62
2021/05/05 06:15:07;;;;;;;0.73;0.73;;;;;;;7.08;100.00;95720.84;5033402;28;20213;-63
2021/05/05 06:17:33;;;;;;;0.87;0.87;;;;;;;7.17;99.72;95723.09;5033858;28;20193;-63
2021/05/05 06:19:58;;;;;;;0.80;0.73;;;;;;;7.06;100.00;95732.53;5033584;28;20191;-63
2021/05/05 06:22:23;;;;;;;0.80;0.80;;;;;;;7.05;100.00;95734.34;5032743;28;20233;-63
2021/05/05 06:24:49;;;;;;;2.27;1.00;;;;;;;7.06;100.00;95737.75;5015670;28;20342;-63
2021/05/05 06:27:14;;;;;;;1.00;0.90;;;;;;;7.14;99.94;95739.97;5032395;28;20199;-63
2021/05/05 06:29:39;;;;;;;0.80;0.80;;;;;;;7.12;100.00;95746.44;5033857;28;20548;-63
2021/05/05 06:32:05;;;;;;;1.00;0.90;;;;;;;7.18;99.75;95755.97;5032584;28;20214;-63
2021/05/05 06:34:34;;;;;;;0.80;0.80;;;;;;;7.26;100.00;95763.41;5032446;28;20225;-63
2021/05/05 06:37:00;;;;;;;0.90;0.90;;;;;;;7.31;99.95;95763.50;5032715;28;20659;-62
2021/05/05 06:39:26;;;;;;;1.57;0.93;;;;;;;7.40;98.62;95767.34;5031714;28;20195;-62
2021/05/05 06:41:51;;;;;;;0.90;0.90;;;;;;;7.40;97.05;95775.97;5032854;28;20183;-62
2021/05/05 06:44:17;;;;;;;2.33;1.10;;;;;;;7.33;98.10;95775.28;5031901;28;20187;-62
2021/05/05 06:46:43;;;;;;;1.37;1.00;;;;;;;7.53;95.54;95777.47;5032598;28;20279;-62
2021/05/05 06:49:12;;;;;;;1.00;1.00;;;;;;;7.67;94.88;95783.22;5031001;28;20194;-63
2021/05/05 06:51:38;;;;;;;1.20;1.20;;;;;;;7.67;92.82;95778.81;5032929;28;20203;-62
2021/05/05 06:54:04;;;;;;;1.10;1.10;;;;;;;7.90;92.07;95785.75;5032803;28;20531;-63
2021/05/05 06:56:30;;;;;;;2.13;1.30;;;;;;;7.98;91.32;95789.78;5032068;28;20217;-62
2021/05/05 06:58:55;;;;;;;3.40;1.13;;;;;;;8.15;91.35;95790.59;5032857;28;20655;-63
2021/05/05 07:01:21;;;;;;;2.20;1.53;;;;;;;8.49;91.77;95784.41;5031600;28;20226;-63
2021/05/05 07:03:47;;;;;;;2.53;1.30;;;;;;;8.91;91.37;95790.00;5032919;28;20541;-63
2021/05/05 07:06:12;;;;;;;1.33;1.30;;;;;;;9.20;86.94;95798.47;5032104;28;20285;-64
2021/05/05 07:08:37;;;;;;;2.03;1.30;;;;;;;9.54;86.19;95793.94;5014832;28;20187;-63
2021/05/05 07:11:03;;;;;;;2.60;1.30;;;;;;;9.88;85.71;95797.97;5032656;28;20218;-62
2021/05/05 07:13:28;;;;;;;1.73;1.10;;;;;;;9.94;80.12;95783.13;5031328;28;20178;-63
2021/05/05 07:15:53;;;;;;;1.90;1.03;;;;;;;9.81;78.70;95794.75;5032595;28;20367;-62
2021/05/05 07:18:19;;;;;;;1.17;1.00;;;;;;;10.13;79.57;95797.47;5031872;28;20198;-62
2021/05/05 07:20:45;;;;;;;3.27;1.27;;;;;;;10.42;76.50;95793.53;5032371;28;20194;-62
2021/05/05 07:23:11;;;;;;;1.60;1.20;;;;;;;10.34;74.56;95795.84;5031626;28;20182;-62
2021/05/05 07:25:36;;;;;;;3.20;1.20;;;;;;;10.20;73.02;95799.88;5031498;28;20203;-61
2021/05/05 07:28:02;;;;;;;1.60;1.10;;;;;;;10.00;73.40;95803.06;5032476;28;20186;-61
2021/05/05 07:30:27;;;;;;;1.50;1.00;;;;;;;9.82;72.27;95812.03;5031222;28;20179;-61
2021/05/05 07:32:54;;;;;;;1.03;0.80;;;;;;;9.32;66.28;95799.16;5032366;28;20704;-61
2021/05/05 07:35:21;;;;;;;1.47;0.87;;;;;;;8.70;66.86;95804.56;5030917;28;20668;-61
2021/05/05 07:48:36;;;;;;;2.33;1.27;;;;;;;7.90;66.31;95817.06;5031073;28;20585;-62
2021/05/05 07:51:02;;;;;;;0.97;0.70;;;;;;;7.82;65.92;95835.69;5023674;28;20174;-61
2021/05/05 07:53:27;;;;;;;1.40;0.90;;;;;;;7.96;65.78;95850.03;5031019;28;20186;-62
2021/05/05 07:55:55;;;;;;;2.13;1.03;;;;;;;7.73;65.40;95839.69;5031132;28;20191;-62
2021/05/05 07:58:21;;;;;;;2.10;1.20;;;;;;;7.83;63.44;95850.31;5030963;28;20193;-62
2021/05/05 08:00:47;;;;;;;0.80;0.80;;;;;;;7.90;63.29;95859.59;5031625;28;20321;-62
2021/05/05 08:03:12;;;;;;;1.63;1.10;;;;;;;8.01;62.98;95850.13;5030014;28;20610;-62
2021/05/05 08:05:38;;;;;;;2.70;1.33;;;;;;;8.22;63.64;95861.72;5030851;28;20205;-62
2021/05/05 08:08:03;;;;;;;1.23;1.00;;;;;;;8.29;60.48;95863.19;5031536;28;20213;-61
2021/05/05 08:10:29;;;;;;;2.07;0.90;;;;;;;8.66;58.02;95847.09;5013234;28;20201;-63
2021/05/05 08:12:54;;;;;;;2.43;0.90;;;;;;;8.71;57.42;95852.41;5030505;28;20201;-61
2021/05/05 08:15:20;;;;;;;1.10;1.00;;;;;;;8.99;56.33;95847.09;4996408;28;20550;-61
2021/05/05 08:17:46;;;;;;;5.10;1.10;;;;;;;9.33;55.05;95850.44;5031326;28;20190;-61
2021/05/05 08:20:13;;;;;;;0.97;0.97;;;;;;;9.37;53.38;95848.91;5029983;28;20194;-62
2021/05/05 08:22:38;;;;;;;1.23;1.10;;;;;;;9.35;54.00;95851.00;5005714;28;20194;-61
2021/05/05 08:25:05;;;;;;;1.17;1.07;;;;;;;9.11;53.71;95841.75;5031164;28;20344;-61
2021/05/05 08:27:30;;;;;;;2.17;0.90;;;;;;;9.02;52.73;95846.63;5030464;28;20187;-61
2021/05/05 08:29:56;;;;;;;1.70;1.00;;;;;;;8.78;54.57;95860.88;5031313;28;20545;-61
2021/05/05 08:32:21;;;;;;;1.27;0.90;;;;;;;8.87;54.91;95871.72;5030357;28;20536;-61
2021/05/05 08:34:47;;;;;;;1.73;0.97;;;;;;;9.39;55.73;95866.97;5030931;28;20327;-61
2021/05/05 08:37:13;;;;;;;1.23;0.80;;;;;;;9.37;54.88;95861.97;5030172;28;20189;-62
2021/05/05 08:39:38;;;;;;;1.33;1.00;;;;;;;9.11;55.37;95860.06;5030872;28;20186;-61
2021/05/05 08:42:04;;;;;;;3.80;1.50;;;;;;;8.74;55.58;95862.38;5031034;28;20189;-61
2021/05/05 08:44:32;;;;;;;2.67;1.00;;;;;;;8.69;55.57;95852.63;5030380;28;20274;-62
2021/05/05 08:46:57;;;;;;;1.53;1.00;;;;;;;8.73;56.03;95852.97;5031154;28;20209;-62
2021/05/05 08:49:23;;;;;;;0.93;0.93;;;;;;;8.67;54.23;95853.91;5030451;28;20205;-62
2021/05/05 08:51:49;;;;;;;1.27;1.10;;;;;;;8.63;54.42;95856.22;5013488;28;20179;-62
2021/05/05 08:54:16;;;;;;;2.17;1.50;;;;;;;8.61;53.14;95863.47;5030038;28;20222;-62
2021/05/05 08:56:42;;;;;;;5.73;2.23;;;;;;;8.55;53.22;95864.41;5031320;28;20186;-62
2021/05/05 08:59:11;;;;;;;2.50;1.33;;;;;;;8.82;53.88;95863.78;5030443;28;20544;-62
2021/05/05 09:01:37;;;;;;;2.67;1.10;;;;;;;9.23;54.16;95862.56;5029161;28;20230;-62
2021/05/05 09:04:04;;;;;;;2.87;1.10;;;;;;;9.29;54.23;95865.03;5012521;28;20221;-61
2021/05/05 09:06:58;;;;;;;2.73;1.03;;;;;;;9.51;53.84;95855.38;5030239;28;20218;-63
2021/05/05 09:09:34;;;;;;;3.97;0.93;;;;;;;9.81;53.57;95864.63;5030124;28;20671;-61
2021/05/05 09:12:21;;;;;;;1.10;1.00;;;;;;;10.19;53.13;95869.81;5031053;28;20186;-62
2021/05/05 09:15:14;;;;;;;2.17;1.07;;;;;;;10.22;53.66;95860.66;5034533;28;20654;-62
2021/05/05 09:17:49;;;;;;;1.33;0.80;;;;;;;10.13;51.66;95870.78;5034402;28;20580;-62
2021/05/05 09:20:28;;;;;;;1.80;0.87;;;;;;;10.24;50.81;95869.88;5033774;28;20221;-62
2021/05/05 09:22:57;;;;;;;1.67;0.90;;;;;;;10.33;49.67;95864.97;5034627;28;20598;-62
2021/05/05 09:25:29;;;;;;;3.23;1.10;;;;;;;10.33;49.54;95862.34;5033150;28;20233;-62
2021/05/05 09:28:14;;;;;;;0.80;0.80;;;;;;;10.34;49.79;95858.69;5034470;28;20236;-62
2021/05/05 09:30:45;;;;;;;1.87;1.23;;;;;;;10.28;50.32;95870.16;5033773;28;20634;-62
2021/05/05 09:33:23;;;;;;;1.70;1.00;;;;;;;10.23;49.88;95870.09;5034504;28;20206;-62
2021/05/05 09:35:53;;;;;;;1.00;0.90;;;;;;;9.99;50.87;95864.31;5015994;28;20173;-61
2021/05/05 09:38:19;;;;;;;1.20;1.10;;;;;;;9.96;50.71;95870.06;5033429;28;20175;-62
2021/05/05 09:40:56;;;;;;;4.13;1.03;;;;;;;9.83;53.00;95871.22;5033961;28;20185;-62
2021/05/05 09:43:22;;;;;;;2.87;1.23;;;;;;;9.64;53.44;95877.75;5032887;28;20260;-62
2021/05/05 09:45:47;;;;;;;1.20;1.03;;;;;;;9.75;54.25;95873.47;5034397;28;20201;-62
2021/05/05 09:48:21;;;;;;;2.23;1.37;;;;;;;9.71;52.47;95870.53;5033170;28;20174;-62
2021/05/05 09:50:47;;;;;;;0.93;0.93;;;;;;;9.76;51.17;95869.81;5016545;28;20171;-61
2021/05/05 09:53:13;;;;;;;1.00;0.90;;;;;;;9.77;50.11;95859.09;5033213;28;20552;-62
2021/05/05 09:55:39;;;;;;;1.57;1.10;;;;;;;10.00;49.09;95866.69;5033657;28;20237;-62
2021/05/05 09:58:20;;;;;;;1.53;1.10;;;;;;;10.15;48.25;95863.44;5031323;28;20312;-61
2021/05/05 10:00:45;;;;;;;2.33;1.10;;;;;;;10.20;48.86;95866.13;5032509;28;20226;-61
2021/05/05 10:03:11;;;;;;;1.30;0.90;;;;;;;10.13;47.46;95865.53;5032694;28;20278;-62
2021/05/05 10:05:37;;;;;;;1.13;1.00;;;;;;;10.30;48.22;95865.47;5032725;28;20203;-62
2021/05/05 10:08:04;;;;;;;1.00;1.00;;;;;;;10.41;45.67;95873.19;5032485;28;20174;-62
2021/05/05 10:10:32;;;;;;;1.17;1.07;;;;;;;10.54;45.04;95876.41;5027145;28;20262;-61
2021/05/05 10:13:00;;;;;;;1.13;1.03;;;;;;;10.83;44.74;95875.09;5032933;28;20647;-62
2021/05/05 10:15:30;;;;;;;1.50;1.00;;;;;;;10.87;44.01;95883.28;5028183;28;20187;-62
2021/05/05 10:17:57;;;;;;;1.90;1.00;;;;;;;10.72;43.51;95886.53;5026447;28;20171;-62
2021/05/05 10:20:25;;;;;;;1.70;0.90;;;;;;;10.49;43.56;95885.03;5031551;28;20192;-62
2021/05/05 10:22:55;;;;;;;2.03;0.80;;;;;;;10.36;44.92;95870.53;5032429;28;20187;-62
2021/05/05 10:25:22;;;;;;;1.57;1.10;;;;;;;10.67;44.54;95884.69;5030927;28;20670;-62
2021/05/05 10:27:48;;;;;;;1.30;1.20;;;;;;;11.22;44.85;95892.19;5032421;28;20189;-63
2021/05/05 10:30:17;;;;;;;1.80;1.30;;;;;;;11.18;42.32;95893.75;5031321;28;20643;-63
2021/05/05 10:32:45;;;;;;;1.80;1.00;;;;;;;10.92;41.39;95867.59;5012736;28;20179;-62
2021/05/05 10:35:15;;;;;;;1.83;0.90;;;;;;;11.21;42.89;95887.19;5031379;28;20210;-63
2021/05/05 10:37:46;;;;;;;1.90;1.03;;;;;;;11.50;42.61;95880.56;5033003;28;20178;-63
2021/05/05 10:40:17;;;;;;;1.20;1.00;;;;;;;11.78;42.55;95884.66;5028461;28;20197;-63
2021/05/05 10:42:57;;;;;;;2.63;0.90;;;;;;;11.70;42.11;95897.47;5033108;28;20178;-62
2021/05/05 10:45:32;;;;;;;1.13;1.03;;;;;;;11.75;41.92;95895.69;5029743;28;20593;-63
2021/05/05 10:48:05;;;;;;;1.07;1.07;;;;;;;12.00;41.16;95906.28;5032439;28;20301;-63
2021/05/05 10:50:50;;;;;;;3.80;1.00;;;;;;;11.82;41.01;95898.84;5031083;28;20651;-62
2021/05/05 10:53:27;;;;;;;2.40;1.00;;;;;;;11.50;41.17;95922.53;5031539;28;20194;-62
2021/05/05 10:55:55;;;;;;;1.20;1.10;;;;;;;11.15;42.11;95938.03;5031643;28;20278;-62
2021/05/05 10:58:27;;;;;;;0.87;0.87;;;;;;;10.58;44.30;95974.47;5022688;28;20547;-62
2021/05/05 11:01:04;;;;;;;2.10;0.83;;;;;;;8.71;57.68;95951.66;5030800;28;20221;-62
2021/05/05 11:03:49;;;;;;;0.87;0.60;;;;;;;7.77;72.82;95985.06;5031252;28;20265;-62
2021/05/05 11:06:33;;;;;;;0.70;0.70;;;;;;;7.23;74.11;96006.22;5013421;28;20210;-63
2021/05/05 11:09:17;;;;;;;0.80;0.80;;;;;;;6.66;81.99;96032.69;5030413;28;20281;-63
2021/05/05 11:11:53;;;;;;;0.90;0.90;;;;;;;6.27;84.74;96043.56;5021376;28;20166;-63
2021/05/05 11:14:24;;;;;;;1.37;1.00;;;;;;;6.16;86.93;96058.09;5030850;28;20646;-63
2021/05/05 11:17:11;;;;;;;1.53;1.20;;;;;;;6.24;84.16;96054.44;5030607;28;20256;-63
2021/05/05 11:19:42;;;;;;;1.00;1.00;;;;;;;6.14;82.78;96048.91;5031699;28;20206;-62
2021/05/05 11:22:08;;;;;;;1.27;1.17;;;;;;;6.41;84.14;96055.41;5032416;28;20179;-63
2021/05/05 11:24:36;;;;;;;1.10;1.00;;;;;;;6.69;83.47;96060.06;5031411;28;20195;-63
2021/05/05 11:27:04;;;;;;;1.20;1.10;;;;;;;6.66;82.52;96078.75;5031976;28;20213;-62
2021/05/05 11:29:39;;;;;;;1.20;1.20;;;;;;;6.58;82.12;96066.81;5031097;28;20538;-63
2021/05/05 11:32:14;;;;;;;0.90;0.90;;;;;;;6.61;81.94;96047.38;5031998;28;20186;-64
2021/05/05 11:34:43;;;;;;;0.80;0.80;;;;;;;6.78;84.05;96057.97;5030964;28;20170;-63
2021/05/05 11:37:18;;;;;;;1.10;1.10;;;;;;;6.77;81.86;96048.56;5032025;28;20553;-63
2021/05/05 11:39:49;;;;;;;1.10;1.10;;;;;;;6.80;82.08;96068.97;5031474;28;20531;-63
2021/05/05 11:42:23;;;;;;;1.20;1.20;;;;;;;6.87;81.88;96056.66;5031600;28;20651;-64
2021/05/05 11:45:01;;;;;;;0.87;0.87;;;;;;;7.09;81.55;96060.34;5031538;28;20192;-64
2021/05/05 11:47:29;;;;;;;1.07;1.07;;;;;;;7.50;78.77;96056.94;5020376;28;20630;-63